Time;durP1;ratioP1;P1;durP2;ratioP2;P2;SDS_P1;SDS_P2;PMS_P1;PMS_P2;Temp;Humidity;BMP_temperature;BMP_pressure;BME280_temperature;BME280_humidity;BME280_pressure;Samples;Min_cycle;Max_cycle;Signal;HPM_P1;HPM_P2
2023/01/01 00:00:47;;;;;;;18.07;13.70;;;;;;;17.47;50.33;99020.59;6944938;28;20245;-77
2023/01/01 00:04:12;;;;;;;19.30;14.60;;;;;;;17.32;51.06;99023.00;6944612;28;20213;-76
2023/01/01 00:07:33;;;;;;;19.43;13.50;;;;;;;17.15;50.94;98994.88;6943895;28;20314;-77
2023/01/01 00:10:55;;;;;;;16.20;11.97;;;;;;;17.24;50.79;99032.41;6944462;28;20226;-77
2023/01/01 00:14:17;;;;;;;17.73;12.97;;;;;;;17.08;50.66;99014.09;6943885;28;20290;-77
2023/01/01 00:17:39;;;;;;;16.53;13.03;;;;;;;17.47;50.00;98998.78;6944454;28;20243;-78
2023/01/01 00:21:05;;;;;;;17.83;13.93;;;;;;;17.44;50.03;99032.81;6945469;28;20274;-80
2023/01/01 00:24:27;;;;;;;16.77;11.73;;;;;;;17.45;49.58;99007.22;6943825;28;20271;-78
2023/01/01 00:27:49;;;;;;;18.37;13.83;;;;;;;17.74;49.33;99036.13;6944860;28;20230;-78
2023/01/01 00:31:13;;;;;;;16.43;12.13;;;;;;;17.84;48.83;99046.38;6944928;28;20235;-78
2023/01/01 00:34:35;;;;;;;17.07;12.97;;;;;;;17.91;48.31;99027.94;6945096;28;20651;-78
2023/01/01 00:37:56;;;;;;;14.33;11.63;;;;;;;17.69;48.65;99035.22;6944541;28;20227;-78
2023/01/01 00:41:18;;;;;;;13.20;10.03;;;;;;;18.24;47.63;99033.44;6944982;28;20294;-78
2023/01/01 00:44:39;;;;;;;10.63;7.70;;;;;;;18.14;46.87;98995.06;6945107;28;20226;-78
2023/01/01 00:48:02;;;;;;;12.23;9.73;;;;;;;18.32;46.10;98978.44;6944695;28;20284;-78
2023/01/01 00:51:24;;;;;;;10.53;8.80;;;;;;;18.33;46.90;99035.53;6944754;28;20281;-78
2023/01/01 00:54:45;;;;;;;9.30;8.17;;;;;;;18.85;45.69;99012.28;6919312;28;20212;-78
2023/01/01 00:58:07;;;;;;;11.77;8.80;;;;;;;18.94;45.16;99035.34;6917905;28;20281;-78
2023/01/01 01:01:29;;;;;;;11.67;10.47;;;;;;;18.72;45.20;99000.88;6922280;28;20349;-78
2023/01/01 01:04:52;;;;;;;13.60;11.60;;;;;;;19.08;44.70;99027.59;6922781;28;20302;-78
2023/01/01 01:08:13;;;;;;;16.33;13.00;;;;;;;19.13;44.37;99031.22;6927599;28;20322;-78
2023/01/01 01:11:35;;;;;;;16.73;13.93;;;;;;;18.91;45.16;99035.84;6949785;28;20639;-78
2023/01/01 01:14:56;;;;;;;16.10;12.23;;;;;;;18.63;45.79;99018.78;6949665;28;20297;-78
2023/01/01 01:18:18;;;;;;;17.37;13.70;;;;;;;18.70;45.22;99019.44;6949406;28;20238;-78
2023/01/01 01:21:41;;;;;;;24.57;18.37;;;;;;;18.84;44.99;99017.97;6947971;28;20275;-78
2023/01/01 01:25:02;;;;;;;23.80;19.27;;;;;;;18.27;46.37;99016.56;6946184;28;20713;-77
2023/01/01 01:28:24;;;;;;;22.47;16.43;;;;;;;17.87;47.52;99019.44;6947430;28;20223;-78
2023/01/01 01:31:45;;;;;;;22.20;15.60;;;;;;;18.04;46.81;99022.19;6949918;28;20317;-78
2023/01/01 01:35:08;;;;;;;17.77;13.53;;;;;;;17.93;47.13;99010.25;6949165;28;20295;-78
2023/01/01 01:38:31;;;;;;;19.37;14.70;;;;;;;18.35;46.55;99038.81;6947927;28;20253;-78
2023/01/01 01:41:52;;;;;;;20.70;16.17;;;;;;;18.32;46.42;99033.03;6949079;28;20340;-78
2023/01/01 01:45:14;;;;;;;20.03;16.00;;;;;;;17.74;47.80;99029.84;6949449;28;20218;-78
2023/01/01 01:48:38;;;;;;;17.57;13.67;;;;;;;17.81;47.74;99022.34;6948232;28;20245;-78
2023/01/01 01:52:00;;;;;;;17.53;14.13;;;;;;;17.75;47.72;99009.69;6948959;28;20288;-78
2023/01/01 01:55:24;;;;;;;18.27;13.00;;;;;;;17.91;47.18;98996.06;6947857;28;20206;-78
2023/01/01 01:58:46;;;;;;;16.37;10.80;;;;;;;18.31;46.64;99026.78;6946207;28;20242;-77
2023/01/01 02:02:17;;;;;;;16.37;12.20;;;;;;;18.95;45.19;99022.50;6947090;28;20211;-78
2023/01/01 02:05:40;;;;;;;15.30;11.40;;;;;;;19.08;44.65;99019.38;6952496;28;20250;-77
2023/01/01 02:09:03;;;;;;;19.27;14.83;;;;;;;19.15;44.25;99031.78;6951943;28;20227;-78
2023/01/01 02:12:27;;;;;;;11.13;9.47;;;;;;;18.57;45.23;99011.59;6950407;28;20223;-78
2023/01/01 02:15:52;;;;;;;10.30;8.67;;;;;;;19.07;44.54;99023.22;6948613;28;20314;-78
2023/01/01 02:19:18;;;;;;;13.23;10.33;;;;;;;19.41;43.69;99041.97;6948354;28;20313;-78
2023/01/01 02:22:52;;;;;;;13.20;9.30;;;;;;;19.27;43.92;99034.44;6948495;28;20621;-78
2023/01/01 02:26:41;;;;;;;12.17;9.03;;;;;;;19.38;43.84;99039.75;6947701;28;20191;-78
2023/01/01 02:30:07;;;;;;;11.20;8.57;;;;;;;19.24;43.82;99024.00;6931013;28;20669;-78
2023/01/01 02:33:29;;;;;;;10.20;7.83;;;;;;;19.26;43.80;99040.97;6948408;28;20211;-78
2023/01/01 02:36:53;;;;;;;9.83;6.90;;;;;;;19.08;44.09;99044.81;6946239;28;20297;-78
2023/01/01 02:40:14;;;;;;;9.73;7.87;;;;;;;19.53;43.34;99045.41;6947844;28;20192;-78
2023/01/01 02:43:36;;;;;;;9.80;7.73;;;;;;;19.11;43.49;98992.38;6947793;28;20334;-78
2023/01/01 02:47:06;;;;;;;8.43;6.80;;;;;;;19.71;42.70;99036.88;6947105;28;20226;-78
2023/01/01 02:50:28;;;;;;;8.10;6.03;;;;;;;19.48;42.80;98998.03;6950149;28;20374;-78
2023/01/01 02:53:59;;;;;;;8.07;5.50;;;;;;;19.34;43.13;99007.72;6948360;28;20227;-78
2023/01/01 02:57:28;;;;;;;7.77;6.10;;;;;;;19.60;42.67;99037.00;6947281;28;20230;-78
2023/01/01 03:00:50;;;;;;;7.07;5.23;;;;;;;19.64;42.60;99052.63;6947523;28;20214;-78
2023/01/01 03:04:21;;;;;;;5.67;5.03;;;;;;;19.70;42.53;99054.34;6946953;28;20199;-78
2023/01/01 03:07:52;;;;;;;6.13;4.53;;;;;;;19.56;42.68;99057.72;6946454;28;20243;-78
2023/01/01 03:11:17;;;;;;;7.00;4.70;;;;;;;19.86;42.10;99036.19;6947173;28;20656;-78
2023/01/01 03:14:42;;;;;;;6.47;4.63;;;;;;;20.36;41.26;99047.59;6947217;28;20292;-78
2023/01/01 03:18:08;;;;;;;5.17;4.63;;;;;;;19.95;41.88;99043.66;6946620;28;20235;-79
2023/01/01 03:21:30;;;;;;;5.27;4.60;;;;;;;19.57;42.78;99046.53;6943398;28;20290;-78
2023/01/01 03:24:54;;;;;;;5.60;4.47;;;;;;;19.62;42.29;99034.81;6919931;28;20295;-78
2023/01/01 03:28:18;;;;;;;6.07;4.17;;;;;;;19.60;42.03;98987.75;6934550;28;20591;-78
2023/01/01 03:31:43;;;;;;;6.27;4.17;;;;;;;20.08;41.60;99056.13;6946615;28;20316;-78
2023/01/01 03:35:05;;;;;;;5.37;4.00;;;;;;;19.80;42.18;99070.06;6946946;28;20220;-78
2023/01/01 03:38:30;;;;;;;5.23;4.33;;;;;;;19.76;42.33;99063.44;6944469;28;20373;-78
2023/01/01 03:41:57;;;;;;;4.40;3.90;;;;;;;19.93;42.03;99066.91;6946784;28;20188;-78
2023/01/01 03:45:20;;;;;;;4.23;3.80;;;;;;;19.78;42.41;99084.00;6946963;28;20198;-78
2023/01/01 03:48:56;;;;;;;4.33;3.73;;;;;;;19.89;42.29;99082.19;6947366;28;20310;-78
2023/01/01 03:52:29;;;;;;;5.57;4.50;;;;;;;19.76;42.29;99094.34;6956799;28;20412;-78
2023/01/01 03:55:58;;;;;;;4.97;3.80;;;;;;;19.72;42.36;99085.03;6956650;28;20715;-78
2023/01/01 03:59:24;;;;;;;4.23;3.63;;;;;;;19.78;42.02;99083.16;6953401;28;20288;-78
2023/01/01 04:02:49;;;;;;;4.83;4.10;;;;;;;19.94;41.89;99077.56;6945878;28;20696;-78
2023/01/01 04:06:11;;;;;;;5.17;4.17;;;;;;;20.10;41.30;99075.88;6945675;28;20245;-78
2023/01/01 04:09:33;;;;;;;4.57;4.13;;;;;;;19.93;41.79;99086.06;6945750;28;20261;-78
2023/01/01 04:12:57;;;;;;;4.47;3.60;;;;;;;19.86;41.89;99086.25;6945952;28;20301;-78
2023/01/01 04:16:19;;;;;;;5.50;4.23;;;;;;;19.72;42.45;99087.75;6944763;28;20211;-78
2023/01/01 04:19:40;;;;;;;4.53;4.10;;;;;;;19.40;42.71;99080.53;6945717;28;20231;-78
2023/01/01 04:23:02;;;;;;;5.00;4.50;;;;;;;19.31;43.34;99085.63;6945896;28;20290;-78
2023/01/01 04:26:23;;;;;;;4.17;3.77;;;;;;;19.66;42.60;99082.47;6944721;28;20245;-78
2023/01/01 04:29:46;;;;;;;3.80;3.40;;;;;;;19.44;42.78;99085.22;6946140;28;20299;-78
2023/01/01 04:33:08;;;;;;;4.07;3.70;;;;;;;19.22;43.19;99075.38;6947387;28;20419;-78
2023/01/01 04:36:29;;;;;;;4.70;4.20;;;;;;;19.56;42.57;99077.72;6949824;28;20211;-78
2023/01/01 04:39:51;;;;;;;5.83;4.03;;;;;;;19.35;43.14;99070.34;6949898;28;20239;-78
2023/01/01 04:43:12;;;;;;;4.70;3.57;;;;;;;19.10;43.84;99088.31;6950793;28;20297;-78
2023/01/01 04:46:35;;;;;;;6.73;3.80;;;;;;;19.14;43.83;99073.03;6950244;28;20725;-78
2023/01/01 04:49:56;;;;;;;4.23;3.70;;;;;;;19.41;43.26;99065.78;6949896;28;20296;-78
2023/01/01 04:53:18;;;;;;;4.87;3.77;;;;;;;19.03;43.95;99063.88;6949273;28;20223;-78
2023/01/01 04:56:39;;;;;;;4.43;3.83;;;;;;;18.97;44.12;99073.09;6949196;28;20352;-78
2023/01/01 05:00:01;;;;;;;3.70;3.20;;;;;;;19.09;43.60;99060.13;6950452;28;20298;-78
2023/01/01 05:03:24;;;;;;;3.93;3.50;;;;;;;18.57;44.87;99067.03;6949757;28;20582;-78
2023/01/01 05:06:46;;;;;;;5.27;3.50;;;;;;;19.00;44.10;99090.91;6949285;28;20231;-78
2023/01/01 05:10:08;;;;;;;3.63;3.33;;;;;;;19.13;43.59;99071.41;6950078;28;20281;-78
2023/01/01 05:13:30;;;;;;;4.00;3.53;;;;;;;18.87;44.09;99085.78;6933077;28;20314;-78
2023/01/01 05:16:52;;;;;;;3.80;3.37;;;;;;;19.12;43.63;99114.31;6921549;28;20235;-78
2023/01/01 05:20:15;;;;;;;4.67;3.33;;;;;;;18.92;44.01;99105.00;6922349;28;20246;-78
2023/01/01 05:23:37;;;;;;;5.60;3.60;;;;;;;19.19;43.21;99084.03;6922792;28;20298;-78
2023/01/01 05:26:58;;;;;;;4.20;3.50;;;;;;;19.03;43.92;99110.34;6946352;28;20229;-78
2023/01/01 05:30:20;;;;;;;6.40;4.00;;;;;;;19.08;43.80;99115.88;6949006;28;20707;-78
2023/01/01 05:33:42;;;;;;;4.77;3.30;;;;;;;18.75;44.34;99121.41;6949702;28;20385;-78
2023/01/01 05:37:05;;;;;;;5.20;3.90;;;;;;;18.89;44.16;99106.31;6947006;28;20271;-78
2023/01/01 05:40:26;;;;;;;5.00;3.60;;;;;;;18.68;43.99;99073.47;6949144;28;20203;-78
2023/01/01 05:43:48;;;;;;;3.70;3.33;;;;;;;19.00;43.96;99110.03;6946658;28;20693;-78
2023/01/01 05:47:09;;;;;;;4.97;3.60;;;;;;;18.78;44.22;99115.44;6947336;28;20318;-78
2023/01/01 05:50:31;;;;;;;5.13;3.43;;;;;;;18.56;44.53;99091.84;6949189;28;20310;-78
2023/01/01 05:53:55;;;;;;;4.23;3.70;;;;;;;18.49;44.80;99122.06;6949024;28;20284;-78
2023/01/01 05:57:16;;;;;;;3.97;3.50;;;;;;;18.91;43.96;99123.28;6943999;28;20235;-78
2023/01/01 06:00:38;;;;;;;3.57;3.10;;;;;;;18.96;43.71;99119.78;6942584;28;20878;-80
2023/01/01 06:03:59;;;;;;;3.37;3.07;;;;;;;18.76;43.96;99103.91;6947465;28;20196;-78
2023/01/01 06:07:21;;;;;;;5.03;3.90;;;;;;;19.01;43.46;99117.97;6947286;28;20314;-78
2023/01/01 06:10:44;;;;;;;5.53;3.70;;;;;;;18.75;43.88;99110.47;6948314;28;20215;-78
2023/01/01 06:14:05;;;;;;;4.73;3.23;;;;;;;18.46;44.43;99094.44;6948346;28;20265;-78
2023/01/01 06:17:27;;;;;;;3.67;2.90;;;;;;;18.55;44.47;99125.72;6940853;28;20238;-78
2023/01/01 06:20:48;;;;;;;5.40;3.33;;;;;;;18.58;44.39;99123.31;6948110;28;20272;-78
2023/01/01 06:24:09;;;;;;;3.53;3.23;;;;;;;18.62;43.95;99126.38;6948256;28;20586;-78
2023/01/01 06:27:34;;;;;;;3.90;3.40;;;;;;;18.75;43.46;99120.59;6947239;28;20945;-78
2023/01/01 06:30:59;;;;;;;6.50;3.33;;;;;;;18.86;43.49;99134.13;6948216;28;20230;-78
2023/01/01 06:34:20;;;;;;;7.70;4.03;;;;;;;19.14;42.89;99136.75;6947559;28;20235;-78
2023/01/01 06:37:42;;;;;;;3.43;2.63;;;;;;;19.03;42.77;99118.53;6945226;28;20227;-78
2023/01/01 06:41:05;;;;;;;4.13;2.70;;;;;;;19.18;42.77;99129.72;6946467;28;20195;-78
2023/01/01 06:44:28;;;;;;;5.80;2.80;;;;;;;19.20;42.42;99124.81;6946031;28;20349;-78
2023/01/01 06:47:49;;;;;;;3.10;2.80;;;;;;;19.11;42.34;99130.97;6944845;28;20231;-78
2023/01/01 06:51:13;;;;;;;4.83;3.40;;;;;;;19.36;41.99;99134.91;6944331;28;20211;-78
2023/01/01 06:54:34;;;;;;;7.10;3.33;;;;;;;18.82;42.73;99129.44;6946672;28;20231;-78
2023/01/01 06:57:55;;;;;;;5.87;3.30;;;;;;;18.85;42.54;99129.75;6946082;28;20222;-78
2023/01/01 07:01:20;;;;;;;4.13;3.50;;;;;;;19.25;42.07;99146.78;6948076;28;20219;-78
2023/01/01 07:04:42;;;;;;;5.47;2.80;;;;;;;19.26;41.84;99147.59;6948113;28;20297;-78
2023/01/01 07:08:03;;;;;;;5.37;3.13;;;;;;;18.77;42.42;99124.72;6947696;28;20365;-79
2023/01/01 07:11:25;;;;;;;3.80;3.37;;;;;;;18.84;42.69;99155.44;6948001;28;20239;-76
2023/01/01 07:14:46;;;;;;;5.73;3.07;;;;;;;18.78;42.47;99150.97;6942604;28;20223;-77
2023/01/01 07:18:09;;;;;;;5.73;3.60;;;;;;;18.59;43.39;99156.91;6946902;28;20323;-76
2023/01/01 07:21:32;;;;;;;5.93;3.63;;;;;;;18.50;43.39;99161.13;6946343;28;20271;-77
2023/01/01 07:24:54;;;;;;;5.03;4.27;;;;;;;18.13;44.66;99154.41;6944998;28;20207;-77
2023/01/01 07:28:15;;;;;;;4.70;4.20;;;;;;;18.03;44.98;99167.88;6946084;28;20314;-76
2023/01/01 07:31:38;;;;;;;5.17;4.43;;;;;;;18.22;44.72;99164.69;6947044;28;20207;-76
2023/01/01 07:35:01;;;;;;;7.27;5.23;;;;;;;17.78;46.16;99167.38;6946821;28;20769;-77
2023/01/01 07:38:24;;;;;;;6.23;4.57;;;;;;;17.68;46.23;99175.38;6943203;28;20231;-75
2023/01/01 07:41:45;;;;;;;6.03;4.43;;;;;;;17.90;46.03;99177.19;6928441;28;20892;-77
2023/01/01 07:45:09;;;;;;;5.80;4.90;;;;;;;17.71;45.62;99167.53;6919077;28;20299;-78
2023/01/01 07:48:30;;;;;;;4.97;4.03;;;;;;;18.02;45.51;99183.44;6918792;28;20229;-77
2023/01/01 07:51:53;;;;;;;8.70;4.97;;;;;;;17.70;45.90;99190.41;6919310;28;20302;-78
2023/01/01 07:55:16;;;;;;;7.07;5.07;;;;;;;17.65;46.74;99184.88;6919322;28;20227;-77
2023/01/01 07:58:39;;;;;;;7.10;4.67;;;;;;;17.73;46.35;99184.47;6944041;28;20348;-78
2023/01/01 08:02:00;;;;;;;5.03;4.53;;;;;;;17.52;46.66;99198.72;6946664;28;20301;-78
2023/01/01 08:05:22;;;;;;;6.23;5.57;;;;;;;17.89;46.48;99205.53;6946994;28;20614;-80
2023/01/01 08:08:44;;;;;;;6.17;5.10;;;;;;;17.97;46.13;99209.75;6945835;28;20360;-77
2023/01/01 08:12:06;;;;;;;7.20;5.47;;;;;;;17.90;46.09;99209.91;6941316;28;20301;-76
2023/01/01 08:15:28;;;;;;;5.60;4.03;;;;;;;17.81;45.99;99188.72;6942940;28;20303;-77
2023/01/01 08:18:49;;;;;;;5.60;4.17;;;;;;;17.90;46.00;99220.84;6942510;28;20269;-77
2023/01/01 08:22:11;;;;;;;5.43;4.40;;;;;;;17.65;46.03;99205.84;6944988;28;20307;-79
2023/01/01 08:25:34;;;;;;;6.93;4.60;;;;;;;17.87;46.66;99218.56;6945943;28;20341;-77
2023/01/01 08:28:55;;;;;;;7.10;6.17;;;;;;;17.78;46.91;99233.69;6946117;28;20223;-78
2023/01/01 08:32:17;;;;;;;6.70;4.37;;;;;;;17.80;46.42;99222.53;6945937;28;20336;-78
2023/01/01 08:35:40;;;;;;;8.10;4.07;;;;;;;17.94;46.01;99234.81;6947697;28;20277;-78
2023/01/01 08:39:02;;;;;;;5.73;4.30;;;;;;;17.85;47.01;99244.44;6945846;28;20450;-78
2023/01/01 08:42:25;;;;;;;6.27;4.10;;;;;;;17.63;47.54;99216.16;6949023;28;20304;-79
2023/01/01 08:45:46;;;;;;;7.13;5.20;;;;;;;17.81;46.12;99188.72;6947855;28;20296;-78
2023/01/01 08:49:08;;;;;;;6.93;4.90;;;;;;;18.52;45.22;99233.53;6945706;28;20810;-78
2023/01/01 08:52:29;;;;;;;6.80;4.97;;;;;;;18.54;45.12;99247.78;6950186;28;20241;-78
2023/01/01 08:56:02;;;;;;;6.20;4.97;;;;;;;18.42;45.70;99259.81;6952229;28;20200;-78
2023/01/01 08:59:25;;;;;;;6.17;4.50;;;;;;;18.77;45.32;99260.47;6956665;28;20227;-77
2023/01/01 09:02:47;;;;;;;6.50;4.53;;;;;;;18.40;45.21;99221.03;6957285;28;20239;-78
2023/01/01 09:06:08;;;;;;;9.33;4.97;;;;;;;18.65;45.68;99257.81;6935613;28;20281;-79
2023/01/01 09:09:30;;;;;;;5.43;4.60;;;;;;;18.59;45.65;99261.53;6940980;28;20247;-78
2023/01/01 09:12:51;;;;;;;7.23;4.70;;;;;;;18.27;45.25;99199.47;6940676;28;20716;-78
2023/01/01 09:16:14;;;;;;;5.30;4.23;;;;;;;18.53;45.67;99267.97;6941799;28;20207;-78
2023/01/01 09:19:36;;;;;;;5.37;4.50;;;;;;;18.59;45.69;99269.75;6946956;28;20313;-78
2023/01/01 09:22:57;;;;;;;5.10;4.07;;;;;;;18.53;45.24;99245.28;6951093;28;20296;-78
2023/01/01 09:26:19;;;;;;;5.47;3.90;;;;;;;18.79;44.85;99258.31;6949133;28;20723;-78
2023/01/01 09:29:40;;;;;;;5.20;4.03;;;;;;;18.66;45.70;99262.22;6950767;28;20341;-78
2023/01/01 09:33:04;;;;;;;5.03;4.17;;;;;;;19.14;44.13;99267.97;6950465;28;20258;-78
2023/01/01 09:36:28;;;;;;;6.50;4.30;;;;;;;19.11;43.89;99267.63;6950549;28;20288;-78
2023/01/01 09:39:50;;;;;;;5.80;4.13;;;;;;;19.21;44.04;99273.31;6961239;28;20259;-79
2023/01/01 09:43:21;;;;;;;5.30;4.40;;;;;;;19.37;43.55;99276.03;6961655;28;20207;-78
2023/01/01 09:46:43;;;;;;;6.73;4.33;;;;;;;19.27;43.96;99281.31;6954723;28;20222;-79
2023/01/01 09:50:11;;;;;;;5.97;4.33;;;;;;;18.93;44.30;99254.22;6929663;28;20361;-77
2023/01/01 09:53:37;;;;;;;6.47;4.00;;;;;;;18.81;44.09;99240.59;6923031;28;20361;-79
2023/01/01 09:57:00;;;;;;;5.07;4.00;;;;;;;19.24;43.90;99264.59;6922377;28;20232;-80
2023/01/01 10:00:22;;;;;;;4.47;4.07;;;;;;;19.58;43.29;99271.69;6948728;28;20285;-80
2023/01/01 10:03:48;;;;;;;6.33;4.97;;;;;;;19.74;43.15;99274.38;6922990;28;20254;-79
2023/01/01 10:07:16;;;;;;;5.10;4.20;;;;;;;19.81;42.41;99246.84;6922983;28;20299;-81
2023/01/01 10:10:40;;;;;;;9.67;5.00;;;;;;;20.06;43.15;99263.59;6923497;28;20274;-77
2023/01/01 10:14:06;;;;;;;7.10;4.50;;;;;;;20.32;42.29;99260.94;6925943;28;20269;-77
2023/01/01 10:17:32;;;;;;;8.07;4.43;;;;;;;20.39;41.68;99247.84;6921778;28;20298;-79
2023/01/01 10:21:01;;;;;;;6.03;3.80;;;;;;;20.71;41.80;99262.47;6922583;28;20291;-78
2023/01/01 10:24:35;;;;;;;4.93;4.00;;;;;;;20.71;41.24;99254.25;6922072;28;20226;-78
2023/01/01 10:27:58;;;;;;;5.50;3.67;;;;;;;20.88;41.31;99254.13;6922139;28;20265;-80
2023/01/01 10:31:23;;;;;;;6.97;4.13;;;;;;;20.98;41.00;99246.81;6926895;28;20264;-79
2023/01/01 10:34:45;;;;;;;4.07;3.40;;;;;;;21.11;40.19;99259.28;6948259;28;20598;-79
2023/01/01 10:38:06;;;;;;;5.33;3.93;;;;;;;21.17;39.05;99260.97;6948358;28;20276;-78
2023/01/01 10:41:29;;;;;;;5.13;3.50;;;;;;;21.42;39.92;99257.31;6949635;28;20345;-78
2023/01/01 10:44:52;;;;;;;3.73;3.30;;;;;;;21.38;39.16;99245.25;6949787;28;20277;-81
2023/01/01 10:48:16;;;;;;;5.77;3.80;;;;;;;21.65;39.24;99229.47;6949048;28;20230;-78
2023/01/01 10:51:43;;;;;;;7.87;3.30;;;;;;;21.78;38.91;99225.47;6948022;28;20209;-81
2023/01/01 10:55:08;;;;;;;4.50;3.50;;;;;;;21.71;38.37;99214.72;6951425;28;20346;-81
2023/01/01 10:58:40;;;;;;;4.10;3.30;;;;;;;22.03;37.79;99244.81;6950613;28;20264;-80
2023/01/01 11:02:15;;;;;;;4.30;3.43;;;;;;;22.30;37.34;99248.22;6949415;28;20292;-80
2023/01/01 11:05:37;;;;;;;7.10;3.47;;;;;;;22.42;37.01;99249.63;6947677;28;20285;-81
2023/01/01 11:09:02;;;;;;;4.93;3.33;;;;;;;22.42;36.18;99235.06;6945319;28;20315;-81
2023/01/01 11:12:27;;;;;;;4.33;3.40;;;;;;;22.54;36.16;99227.44;6944004;28;20798;-85
2023/01/01 11:15:50;;;;;;;8.37;3.70;;;;;;;22.57;36.33;99193.91;6952136;28;20592;-77
2023/01/01 11:19:19;;;;;;;6.63;2.73;;;;;;;22.62;35.84;99232.38;6949807;28;20233;-82
2023/01/01 11:22:44;;;;;;;6.27;2.90;;;;;;;22.55;35.53;99213.41;6948662;28;20659;-78
2023/01/01 11:26:08;;;;;;;3.87;2.93;;;;;;;22.21;35.99;99208.63;6920470;28;20641;-78
2023/01/01 11:29:30;;;;;;;5.70;2.90;;;;;;;22.44;34.91;99206.25;6924834;28;20226;-77
2023/01/01 11:32:55;;;;;;;5.97;2.80;;;;;;;22.80;35.26;99199.69;6921454;28;20300;-78
2023/01/01 11:36:22;;;;;;;4.27;3.40;;;;;;;22.74;33.92;99177.97;6921033;28;20294;-77
2023/01/01 11:39:45;;;;;;;4.80;3.70;;;;;;;23.03;33.93;99203.81;6921016;28;20230;-78
2023/01/01 11:43:07;;;;;;;6.37;3.13;;;;;;;23.12;33.06;99199.44;6932807;28;20349;-79
2023/01/01 11:46:29;;;;;;;5.57;2.83;;;;;;;23.04;34.07;99184.28;6933457;28;20220;-79
2023/01/01 11:49:55;;;;;;;24.63;15.90;;;;;;;22.75;34.68;99179.59;6920452;28;20241;-78
2023/01/01 11:53:20;;;;;;;5.97;3.80;;;;;;;22.68;34.32;99179.06;6930930;28;20658;-78
2023/01/01 11:56:41;;;;;;;19.20;15.90;;;;;;;22.62;34.84;99181.00;6946148;28;20280;-82
2023/01/01 12:00:05;;;;;;;7.13;2.93;;;;;;;22.62;34.71;99172.75;6946296;28;20235;-77
2023/01/01 12:03:30;;;;;;;5.20;2.90;;;;;;;22.71;34.06;99143.59;6943889;28;20238;-77
2023/01/01 12:06:56;;;;;;;6.17;2.73;;;;;;;22.93;33.31;99162.56;6943271;28;20217;-78
2023/01/01 12:10:22;;;;;;;3.80;2.67;;;;;;;22.22;34.38;99169.06;6946503;28;20302;-77
2023/01/01 12:13:49;;;;;;;5.30;2.73;;;;;;;22.87;33.47;99153.50;6946510;28;20225;-78
2023/01/01 12:17:17;;;;;;;5.53;2.67;;;;;;;22.52;34.02;99150.75;6945130;28;20308;-77
2023/01/01 12:20:43;;;;;;;8.47;2.30;;;;;;;22.28;34.21;99138.59;6946758;28;20553;-77
2023/01/01 12:24:10;;;;;;;3.40;2.37;;;;;;;22.82;33.28;99149.91;6940274;28;20244;-78
2023/01/01 12:27:42;;;;;;;6.53;3.03;;;;;;;22.42;33.88;99122.41;6945872;28;20309;-78
2023/01/01 12:31:08;;;;;;;5.00;2.90;;;;;;;22.96;34.12;99137.28;6946454;28;20199;-77
2023/01/01 12:34:34;;;;;;;3.43;2.50;;;;;;;23.58;32.29;99141.28;6946416;28;20229;-78
2023/01/01 12:38:02;;;;;;;5.90;2.70;;;;;;;23.40;32.42;99139.13;6943580;28;20311;-78
2023/01/01 12:41:32;;;;;;;4.20;2.50;;;;;;;23.17;32.75;99125.16;6928430;28;20351;-78
2023/01/01 12:45:15;;;;;;;5.70;2.60;;;;;;;23.94;31.59;99117.19;6918785;28;20241;-76
2023/01/01 12:48:44;;;;;;;3.33;2.70;;;;;;;23.61;31.98;99110.41;6918342;28;20321;-78
2023/01/01 12:52:14;;;;;;;6.60;3.07;;;;;;;22.97;33.07;99112.25;6935826;28;20204;-78
2023/01/01 12:56:02;;;;;;;3.47;2.43;;;;;;;23.38;32.32;99107.50;6947081;28;20219;-79
2023/01/01 12:59:27;;;;;;;4.40;2.90;;;;;;;23.53;32.22;99111.00;6950416;28;20223;-77
2023/01/01 13:02:51;;;;;;;4.63;2.33;;;;;;;23.40;32.04;99105.28;6945149;28;20215;-80
2023/01/01 13:06:13;;;;;;;5.30;2.40;;;;;;;22.73;33.44;99105.66;6950388;28;20213;-78
2023/01/01 13:09:38;;;;;;;4.73;2.53;;;;;;;23.16;32.67;99113.34;6940197;28;20446;-78
2023/01/01 13:13:00;;;;;;;6.17;2.70;;;;;;;23.25;31.86;99108.09;6942351;28;20202;-77
2023/01/01 13:16:37;;;;;;;3.53;2.67;;;;;;;23.42;32.22;99106.66;6948750;28;20371;-78
2023/01/01 13:19:59;;;;;;;6.20;3.33;;;;;;;23.62;31.71;99108.50;6934384;28;20293;-77
2023/01/01 13:23:59;;;;;;;6.30;2.73;;;;;;;23.78;32.13;99110.09;6921761;28;20211;-78
2023/01/01 13:28:05;;;;;;;5.77;3.23;;;;;;;23.72;32.37;99092.75;6912114;28;20318;-78
2023/01/01 13:32:03;;;;;;;8.23;3.90;;;;;;;23.87;32.25;99114.75;6928421;28;20666;-77
2023/01/01 13:35:24;;;;;;;5.97;3.70;;;;;;;23.81;33.10;99104.00;6942551;28;20220;-78
2023/01/01 13:38:46;;;;;;;8.03;4.20;;;;;;;23.79;33.09;99106.22;6948732;28;20225;-77
2023/01/01 13:42:40;;;;;;;4.43;3.83;;;;;;;23.41;33.39;99099.50;6950599;28;20314;-78
2023/01/01 13:46:03;;;;;;;6.57;3.90;;;;;;;23.57;33.75;99100.25;6950042;28;20238;-78
2023/01/01 13:49:32;;;;;;;5.63;3.90;;;;;;;23.55;33.36;99103.28;6944849;28;20309;-78
2023/01/01 13:53:17;;;;;;;4.63;3.33;;;;;;;23.59;33.27;99106.31;6935169;28;20297;-79
2023/01/01 13:56:45;;;;;;;6.47;3.87;;;;;;;23.65;32.92;99096.94;6946943;28;20770;-79
2023/01/01 14:00:17;;;;;;;6.53;3.93;;;;;;;23.49;33.78;99093.41;6949113;28;20242;-77
2023/01/01 14:03:42;;;;;;;5.30;4.00;;;;;;;23.27;34.64;99083.88;6948970;28;20245;-77
2023/01/01 14:07:11;;;;;;;5.80;3.80;;;;;;;23.27;35.22;99087.44;6946552;28;20293;-77
2023/01/01 14:10:35;;;;;;;5.73;3.80;;;;;;;23.13;35.76;99083.59;6929750;28;20294;-77
2023/01/01 14:13:56;;;;;;;4.77;3.97;;;;;;;22.96;35.96;99072.06;6949458;28;20670;-75
2023/01/01 14:17:18;;;;;;;6.77;4.23;;;;;;;22.88;35.80;99080.06;6948609;28;20703;-78
2023/01/01 14:20:42;;;;;;;7.83;4.77;;;;;;;22.83;36.37;99071.84;6956635;28;20225;-79
2023/01/01 14:24:06;;;;;;;11.07;5.47;;;;;;;22.61;36.87;99085.06;6951695;28;20609;-78
2023/01/01 14:27:29;;;;;;;5.90;4.90;;;;;;;22.05;39.01;99078.66;6948772;28;20382;-78
2023/01/01 14:30:51;;;;;;;9.73;5.20;;;;;;;22.30;38.70;99091.63;6949658;28;20381;-80
2023/01/01 14:34:14;;;;;;;5.97;4.73;;;;;;;22.42;38.41;99092.19;6948992;28;20234;-78
2023/01/01 14:37:36;;;;;;;7.87;5.03;;;;;;;22.19;38.76;99098.19;6948460;28;20318;-78
2023/01/01 14:41:09;;;;;;;5.33;4.27;;;;;;;21.96;38.89;99099.50;6947539;28;20297;-78
2023/01/01 14:44:34;;;;;;;7.10;4.60;;;;;;;21.60;39.16;99089.50;6947152;28;20669;-79
2023/01/01 14:47:57;;;;;;;9.57;4.70;;;;;;;21.40;40.02;99096.81;6947558;28;20315;-80
2023/01/01 14:51:20;;;;;;;8.90;5.33;;;;;;;21.48;40.29;99086.16;6948325;28;20215;-79
2023/01/01 14:54:43;;;;;;;9.20;6.03;;;;;;;21.39;40.68;99097.91;6948620;28;20296;-81
2023/01/01 14:58:06;;;;;;;9.90;4.77;;;;;;;20.49;42.74;99100.03;6947368;28;20314;-77
2023/01/01 15:01:28;;;;;;;8.97;4.90;;;;;;;20.03;43.83;99102.56;6948053;28;20215;-78
2023/01/01 15:04:50;;;;;;;6.83;4.77;;;;;;;20.10;43.79;99087.63;6948469;28;20226;-78
2023/01/01 15:08:19;;;;;;;7.77;5.07;;;;;;;20.12;43.86;99090.94;6946915;28;20253;-77
2023/01/01 15:11:41;;;;;;;6.90;4.70;;;;;;;20.21;43.87;99083.91;6946662;28;20719;-77
2023/01/01 15:15:05;;;;;;;7.33;4.50;;;;;;;20.01;44.42;99088.31;6945598;28;20293;-78
2023/01/01 15:18:41;;;;;;;7.60;4.80;;;;;;;20.11;44.30;99097.50;6941283;28;20231;-82
2023/01/01 15:22:08;;;;;;;7.73;4.87;;;;;;;19.16;45.75;99090.03;6955819;28;20211;-78
2023/01/01 15:25:34;;;;;;;7.63;5.03;;;;;;;18.81;47.58;99095.81;6944154;28;20207;-77
2023/01/01 15:28:57;;;;;;;6.70;4.90;;;;;;;19.19;46.35;99111.38;6942103;28;20223;-77
2023/01/01 15:32:25;;;;;;;6.37;5.20;;;;;;;19.06;46.60;99101.66;6946083;28;20818;-77
2023/01/01 15:35:48;;;;;;;8.27;5.07;;;;;;;18.95;47.05;99110.78;6942637;28;20780;-79
2023/01/01 15:39:10;;;;;;;8.93;4.60;;;;;;;18.94;46.96;99109.13;6936432;28;20744;-80
2023/01/01 15:42:34;;;;;;;8.73;4.97;;;;;;;18.63;47.87;99100.72;6944478;28;20345;-79
2023/01/01 15:45:58;;;;;;;9.20;5.13;;;;;;;18.86;47.22;99090.41;6946313;28;20230;-81
2023/01/01 15:49:29;;;;;;;7.10;5.30;;;;;;;18.52;48.22;99104.38;6945416;28;20388;-78
2023/01/01 15:52:53;;;;;;;9.17;5.30;;;;;;;18.69;47.57;99110.66;6942429;28;20198;-78
2023/01/01 15:56:16;;;;;;;8.63;4.90;;;;;;;17.98;48.48;99086.75;6927592;28;20227;-77
2023/01/01 15:59:38;;;;;;;10.80;4.70;;;;;;;17.78;49.38;99096.47;6943858;28;20257;-77